Time;durP1;ratioP1;P1;durP2;ratioP2;P2;SDS_P1;SDS_P2;PMS_P1;PMS_P2;Temp;Humidity;BMP_temperature;BMP_pressure;BME280_temperature;BME280_humidity;BME280_pressure;Samples;Min_cycle;Max_cycle;Signal;HPM_P1;HPM_P2
2022/01/25 00:26:30;;;;;;;33.72;23.42;;;5.60;97.00;;;;;;5061369;28;20056;-59
2022/01/25 00:29:12;;;;;;;32.40;22.13;;;5.60;97.00;;;;;;5040484;28;20041;-59
2022/01/25 00:31:39;;;;;;;33.42;23.02;;;5.60;97.00;;;;;;5050612;28;20021;-59
2022/01/25 00:34:05;;;;;;;33.17;22.65;;;5.60;97.00;;;;;;5060383;28;20087;-59
2022/01/25 00:36:32;;;;;;;34.67;23.52;;;5.60;97.00;;;;;;5059248;28;20082;-59
2022/01/25 00:38:57;;;;;;;35.05;23.65;;;5.60;96.90;;;;;;5040261;28;20112;-59
2022/01/25 00:41:25;;;;;;;35.63;23.52;;;5.70;96.90;;;;;;5052462;28;20108;-59
2022/01/25 00:43:51;;;;;;;36.30;24.30;;;5.70;96.90;;;;;;5055988;28;20122;-59
2022/01/25 00:46:19;;;;;;;36.58;23.67;;;5.60;96.80;;;;;;5049964;28;20021;-59
2022/01/25 00:48:49;;;;;;;39.90;27.55;;;5.60;96.90;;;;;;5052919;28;20021;-59
2022/01/25 00:56:23;;;;;;;36.45;26.05;;;5.60;97.10;;;;;;5056875;28;20035;-59
2022/01/25 00:58:49;;;;;;;40.05;26.92;;;5.60;97.10;;;;;;5059387;28;20032;-59
2022/01/25 01:01:18;;;;;;;45.03;30.42;;;5.60;97.00;;;;;;5055509;28;20043;-59
2022/01/25 01:03:43;;;;;;;41.15;28.95;;;5.60;96.90;;;;;;5065293;28;20026;-59
2022/01/25 01:06:09;;;;;;;38.55;26.25;;;5.60;97.00;;;;;;5054571;28;20035;-59
2022/01/25 01:08:34;;;;;;;36.47;26.13;;;5.60;97.00;;;;;;5052882;28;20021;-59
2022/01/25 01:11:03;;;;;;;37.58;26.27;;;5.50;97.00;;;;;;5056136;28;20031;-59
2022/01/25 01:30:09;;;;;;;36.85;24.50;;;5.50;97.10;;;;;;5051974;28;20083;-59
2022/01/25 01:43:15;;;;;;;39.30;25.52;;;5.50;97.10;;;;;;5058074;28;20013;-59
2022/01/25 01:48:32;;;;;;;41.00;26.52;;;5.50;97.10;;;;;;5056293;28;20021;-59
2022/01/25 01:51:07;;;;;;;40.00;26.10;;;5.50;97.10;;;;;;5057388;28;20017;-59
2022/01/25 01:53:35;;;;;;;45.20;30.63;;;5.50;97.10;;;;;;5043436;28;20545;-59
2022/01/25 01:56:01;;;;;;;50.00;32.88;;;5.50;97.10;;;;;;5052865;28;20029;-59
2022/01/25 01:58:27;;;;;;;50.75;33.70;;;5.50;97.10;;;;;;5036591;28;20450;-59
2022/01/25 02:00:53;;;;;;;49.60;32.67;;;5.50;97.10;;;;;;5034468;28;20025;-59
2022/01/25 02:03:19;;;;;;;47.13;30.70;;;5.50;97.10;;;;;;5071749;28;20047;-59
2022/01/25 02:05:44;;;;;;;41.55;27.60;;;5.50;97.10;;;;;;5041338;28;20022;-59
2022/01/25 02:08:11;;;;;;;44.03;28.00;;;5.50;97.20;;;;;;5051617;28;20073;-59
2022/01/25 02:10:37;;;;;;;43.65;27.15;;;5.50;97.20;;;;;;5053853;28;20025;-59
2022/01/25 02:13:08;;;;;;;42.63;27.52;;;5.50;97.10;;;;;;5033965;28;20028;-59
2022/01/25 02:15:36;;;;;;;40.30;26.98;;;5.60;97.10;;;;;;5065360;28;20029;-59
2022/01/25 02:23:30;;;;;;;41.58;26.20;;;5.60;97.10;;;;;;5064654;28;20036;-59
2022/01/25 02:25:59;;;;;;;41.45;26.77;;;5.60;97.10;;;;;;5064205;28;20033;-59
2022/01/25 02:28:27;;;;;;;37.45;24.92;;;5.60;97.10;;;;;;5034076;28;20021;-59
2022/01/25 02:30:53;;;;;;;41.72;27.63;;;5.60;97.10;;;;;;5062330;28;20053;-59
2022/01/25 02:33:19;;;;;;;40.75;27.33;;;5.60;97.10;;;;;;5060266;28;20021;-59
2022/01/25 02:35:45;;;;;;;41.63;27.75;;;5.50;97.10;;;;;;5058649;28;20029;-59
2022/01/25 02:38:13;;;;;;;45.00;28.33;;;5.60;97.10;;;;;;5056130;28;20029;-59
2022/01/25 02:40:39;;;;;;;41.90;27.27;;;5.60;97.10;;;;;;5060249;28;20488;-59
2022/01/25 02:43:05;;;;;;;40.10;26.40;;;5.60;97.20;;;;;;5035019;28;20033;-59
2022/01/25 02:45:34;;;;;;;44.30;27.83;;;5.60;97.10;;;;;;5053720;28;20040;-59
2022/01/25 02:50:44;;;;;;;41.78;26.92;;;5.60;97.10;;;;;;5059425;28;20080;-59
2022/01/25 02:53:27;;;;;;;42.92;26.38;;;5.50;97.10;;;;;;5045919;28;20091;-59
2022/01/25 02:55:52;;;;;;;44.67;27.30;;;5.60;97.10;;;;;;5066596;28;20044;-59
2022/01/25 02:58:18;;;;;;;41.67;26.83;;;5.60;97.10;;;;;;5063097;28;20103;-59
2022/01/25 03:00:44;;;;;;;39.55;25.85;;;5.60;97.10;;;;;;5041003;28;20032;-59
2022/01/25 03:03:10;;;;;;;48.75;31.08;;;5.60;97.10;;;;;;5058331;28;20381;-59
2022/01/25 03:05:35;;;;;;;46.40;29.92;;;5.60;97.10;;;;;;5066438;28;20045;-59
2022/01/25 03:08:01;;;;;;;45.75;29.98;;;5.60;97.10;;;;;;5045768;28;20020;-59
2022/01/25 03:10:38;;;;;;;46.13;29.20;;;5.60;97.00;;;;;;5043665;28;20078;-59
2022/01/25 03:13:08;;;;;;;45.00;29.23;;;5.60;97.00;;;;;;5061552;28;20169;-59
2022/01/25 03:26:57;;;;;;;51.22;31.48;;;5.50;96.90;;;;;;5030291;28;20024;-59
2022/01/25 03:29:22;;;;;;;48.72;32.03;;;5.50;96.90;;;;;;5047887;28;20404;-59
2022/01/25 03:31:48;;;;;;;49.55;31.05;;;5.50;96.90;;;;;;5043558;28;20028;-59
2022/01/25 03:34:14;;;;;;;44.85;28.92;;;5.50;96.90;;;;;;5065200;28;20052;-59
2022/01/25 03:36:40;;;;;;;41.58;27.75;;;5.50;96.90;;;;;;5053555;28;20022;-59
2022/01/25 03:39:06;;;;;;;41.22;27.42;;;5.50;96.90;;;;;;5044382;28;20025;-59
2022/01/25 03:41:33;;;;;;;44.55;28.58;;;5.50;96.90;;;;;;5059305;28;20377;-59
2022/01/25 03:43:58;;;;;;;47.33;29.65;;;5.50;96.80;;;;;;5041512;28;20029;-59
2022/01/25 03:46:40;;;;;;;51.03;32.25;;;5.50;96.80;;;;;;5059410;28;20094;-59
2022/01/25 03:51:50;;;;;;;43.38;27.63;;;5.40;96.80;;;;;;5068072;28;20050;-59
2022/01/25 03:54:17;;;;;;;42.42;26.65;;;5.40;96.90;;;;;;5059199;28;20020;-59
2022/01/25 03:56:42;;;;;;;42.83;26.90;;;5.50;96.90;;;;;;5054698;28;20507;-59
2022/01/25 03:59:08;;;;;;;43.47;27.95;;;5.40;96.80;;;;;;5062724;28;20033;-59
2022/01/25 04:01:35;;;;;;;46.58;29.80;;;5.50;96.80;;;;;;5061541;28;20111;-59
2022/01/25 04:04:06;;;;;;;44.38;26.75;;;5.50;96.80;;;;;;5062800;28;20075;-59
2022/01/25 04:07:08;;;;;;;45.38;28.27;;;5.50;96.90;;;;;;5065474;28;20032;-59
2022/01/25 04:09:33;;;;;;;41.40;25.88;;;5.50;96.80;;;;;;5045563;28;20119;-59
2022/01/25 04:12:01;;;;;;;39.30;25.23;;;5.50;96.90;;;;;;5059324;28;20127;-59
2022/01/25 04:14:28;;;;;;;37.33;25.00;;;5.50;96.90;;;;;;5063640;28;20021;-59
2022/01/25 04:17:00;;;;;;;41.08;25.88;;;5.50;96.90;;;;;;5059087;28;20047;-59
2022/01/25 04:25:13;;;;;;;48.42;29.23;;;5.50;96.80;;;;;;5062359;28;20016;-59
2022/01/25 04:27:39;;;;;;;48.00;30.13;;;5.50;96.80;;;;;;5035852;28;20024;-59
2022/01/25 04:30:06;;;;;;;44.85;28.63;;;5.40;96.70;;;;;;5064680;28;20403;-59
2022/01/25 04:32:43;;;;;;;44.97;28.90;;;5.50;96.70;;;;;;5059226;28;20032;-59
2022/01/25 04:35:25;;;;;;;47.47;30.58;;;5.40;96.70;;;;;;5057404;28;20016;-59
2022/01/25 04:57:30;;;;;;;48.50;30.48;;;5.30;96.60;;;;;;5060236;28;20028;-59
2022/01/25 05:00:33;;;;;;;45.53;28.42;;;5.30;96.60;;;;;;5065674;28;20124;-59
2022/01/25 05:02:46;;;;;;;43.03;25.63;;;5.30;96.60;;;;;;5050607;28;20040;-59
2022/01/25 05:05:18;;;;;;;44.33;27.80;;;5.30;96.60;;;;;;5060968;28;20052;-59
2022/01/25 05:10:14;;;;;;;43.28;26.50;;;5.40;96.70;;;;;;5056238;28;20384;-59
2022/01/25 05:15:22;;;;;;;41.92;25.83;;;5.40;96.60;;;;;;5059177;28;20445;-59
2022/01/25 05:18:03;;;;;;;47.30;28.50;;;5.30;96.60;;;;;;5052462;28;20017;-59
2022/01/25 05:23:21;;;;;;;39.05;24.85;;;5.40;96.50;;;;;;5052313;28;20035;-59
2022/01/25 05:25:46;;;;;;;42.70;26.83;;;5.40;96.80;;;;;;5055074;28;20381;-59
2022/01/25 05:28:12;;;;;;;42.30;26.60;;;5.40;96.50;;;;;;5034060;28;20071;-58
2022/01/25 05:30:51;;;;;;;41.35;25.95;;;5.30;96.50;;;;;;5063206;28;20074;-59
2022/01/25 05:33:16;;;;;;;44.40;26.98;;;5.40;96.50;;;;;;5066023;28;20101;-59
2022/01/25 05:35:42;;;;;;;42.63;26.67;;;5.30;96.50;;;;;;5048466;28;20476;-59
2022/01/25 05:38:08;;;;;;;45.75;27.92;;;5.30;96.50;;;;;;5056488;28;20439;-59
2022/01/25 05:40:44;;;;;;;43.40;27.52;;;5.30;96.50;;;;;;5054994;28;20032;-59
2022/01/25 05:48:29;;;;;;;49.53;30.23;;;5.30;96.50;;;;;;5053826;28;20259;-59
2022/01/25 05:50:56;;;;;;;56.03;35.03;;;5.30;96.40;;;;;;5050303;28;20152;-59
2022/01/25 05:53:22;;;;;;;51.80;32.72;;;5.20;96.30;;;;;;5042695;28;20497;-59
2022/01/25 05:55:49;;;;;;;51.53;33.10;;;5.20;96.30;;;;;;5043685;28;20469;-58
2022/01/25 05:58:14;;;;;;;50.13;31.83;;;5.20;96.30;;;;;;5054715;28;20032;-59
2022/01/25 06:00:40;;;;;;;51.35;32.88;;;5.20;96.30;;;;;;5030927;28;20021;-59
2022/01/25 06:03:07;;;;;;;53.28;33.90;;;5.20;96.20;;;;;;5059770;28;20033;-59
2022/01/25 06:05:41;;;;;;;48.20;30.88;;;5.20;96.20;;;;;;5062575;28;20032;-59
2022/01/25 06:08:07;;;;;;;48.17;30.52;;;5.20;96.20;;;;;;5059781;28;20024;-59
2022/01/25 06:10:33;;;;;;;48.30;29.30;;;5.20;96.20;;;;;;5055364;28;20419;-59
2022/01/25 06:12:59;;;;;;;47.47;29.42;;;5.20;96.10;;;;;;5051238;28;20032;-59
2022/01/25 06:15:25;;;;;;;47.33;28.90;;;5.20;96.20;;;;;;5031015;28;20024;-59
2022/01/25 06:17:51;;;;;;;48.53;29.17;;;5.20;96.20;;;;;;5057067;28;20151;-59
2022/01/25 06:20:28;;;;;;;44.63;27.33;;;5.20;96.20;;;;;;5059487;28;20033;-59
2022/01/25 06:22:55;;;;;;;44.13;26.83;;;5.20;96.20;;;;;;5050150;28;20070;-59
2022/01/25 06:25:20;;;;;;;46.20;27.77;;;5.20;96.20;;;;;;5056500;28;20028;-59
2022/01/25 06:27:46;;;;;;;45.80;27.65;;;5.20;96.20;;;;;;5051260;28;20415;-59
2022/01/25 06:30:17;;;;;;;46.38;28.15;;;5.20;96.20;;;;;;5032698;28;20497;-59
2022/01/25 06:32:44;;;;;;;47.00;28.25;;;5.20;96.20;;;;;;5067496;28;20024;-59
2022/01/25 06:35:11;;;;;;;54.50;32.10;;;5.20;96.20;;;;;;5055798;28;20416;-58
2022/01/25 06:37:37;;;;;;;52.08;31.65;;;5.20;96.10;;;;;;5071489;28;20484;-59
2022/01/25 06:40:07;;;;;;;54.65;32.58;;;5.10;96.10;;;;;;5054267;28;20090;-59
2022/01/25 06:42:35;;;;;;;50.67;31.50;;;5.10;96.20;;;;;;5072378;28;20384;-59
2022/01/25 06:45:04;;;;;;;55.47;33.42;;;5.10;96.20;;;;;;5054426;28;20020;-59
2022/01/25 06:47:30;;;;;;;58.20;35.80;;;5.10;96.10;;;;;;5071849;28;20044;-59
2022/01/25 06:49:56;;;;;;;55.55;32.75;;;5.10;96.10;;;;;;5047030;28;20020;-59
2022/01/25 06:52:22;;;;;;;53.90;31.25;;;5.00;96.10;;;;;;5041000;28;20028;-59
2022/01/25 06:54:48;;;;;;;54.90;32.38;;;5.00;96.10;;;;;;5042841;28;20362;-59
2022/01/25 06:57:13;;;;;;;55.22;32.53;;;5.00;96.10;;;;;;5034156;28;20067;-59
2022/01/25 06:59:39;;;;;;;53.42;33.20;;;5.00;96.00;;;;;;5052402;28;20033;-59
2022/01/25 07:02:05;;;;;;;53.83;32.45;;;5.00;96.00;;;;;;5067366;28;20020;-59
2022/01/25 07:04:31;;;;;;;55.72;33.05;;;4.90;96.00;;;;;;5072755;28;20117;-59
2022/01/25 07:07:07;;;;;;;52.97;32.30;;;4.90;96.10;;;;;;5072312;28;20100;-59
2022/01/25 07:12:24;;;;;;;51.70;30.92;;;4.90;96.10;;;;;;5061249;28;20094;-59
2022/01/25 07:14:50;;;;;;;53.13;32.90;;;4.90;96.10;;;;;;5054059;28;20476;-59
2022/01/25 07:17:15;;;;;;;52.63;30.13;;;4.90;96.10;;;;;;5054273;28;20060;-59
2022/01/25 07:19:43;;;;;;;46.05;28.08;;;4.90;96.10;;;;;;5072213;28;20040;-59
2022/01/25 07:22:10;;;;;;;50.25;30.40;;;4.90;96.10;;;;;;5054050;28;20468;-59
2022/01/25 07:24:35;;;;;;;47.42;27.83;;;4.90;96.10;;;;;;5054216;28;20384;-59
2022/01/25 07:27:01;;;;;;;45.05;27.25;;;4.90;96.10;;;;;;5052728;28;20025;-59
2022/01/25 07:29:27;;;;;;;46.97;27.95;;;5.00;96.10;;;;;;5062014;28;20402;-58
2022/01/25 07:32:09;;;;;;;44.92;27.48;;;5.00;96.00;;;;;;5059757;28;20055;-59
2022/01/25 07:34:35;;;;;;;47.22;28.13;;;5.00;96.00;;;;;;5064834;28;20040;-59
2022/01/25 07:37:14;;;;;;;46.97;27.33;;;5.00;96.00;;;;;;5051035;28;20465;-59
2022/01/25 07:39:42;;;;;;;47.22;27.63;;;5.00;96.00;;;;;;5056778;28;20055;-59
2022/01/25 07:42:08;;;;;;;50.28;29.27;;;5.00;96.00;;;;;;5069054;28;20100;-59
2022/01/25 07:44:36;;;;;;;53.40;30.50;;;5.00;96.00;;;;;;5068688;28;20024;-59
2022/01/25 07:47:27;;;;;;;55.33;33.15;;;5.00;96.00;;;;;;5070195;28;20055;-59
2022/01/25 07:49:54;;;;;;;52.78;31.85;;;4.90;96.00;;;;;;5045243;28;20086;-59
2022/01/25 07:52:19;;;;;;;51.90;30.48;;;4.90;96.00;;;;;;5073565;28;20033;-59
2022/01/25 07:55:02;;;;;;;51.05;30.35;;;4.90;96.00;;;;;;5053901;28;20024;-59
2022/01/25 07:57:39;;;;;;;49.75;29.77;;;5.00;96.00;;;;;;5047426;28;20074;-59
2022/01/25 08:00:05;;;;;;;47.30;28.45;;;4.90;96.10;;;;;;5069507;28;20017;-59
2022/01/25 08:02:31;;;;;;;50.45;29.80;;;4.90;96.10;;;;;;5055500;28;20032;-59
2022/01/25 08:04:57;;;;;;;48.05;29.00;;;4.90;96.10;;;;;;5074432;28;20062;-59
2022/01/25 08:07:22;;;;;;;52.03;31.80;;;4.90;96.10;;;;;;5055905;28;20028;-58
2022/01/25 08:09:48;;;;;;;50.83;31.58;;;4.90;96.10;;;;;;5064605;28;20051;-59
2022/01/25 08:12:14;;;;;;;50.42;30.83;;;4.90;96.10;;;;;;5050549;28;20036;-59
2022/01/25 08:14:42;;;;;;;46.63;27.48;;;4.90;96.10;;;;;;5071042;28;20091;-59
2022/01/25 08:17:08;;;;;;;46.28;28.15;;;4.90;96.10;;;;;;5065047;28;20052;-58
2022/01/25 08:19:35;;;;;;;51.50;31.02;;;4.90;96.10;;;;;;5060362;28;20033;-59
2022/01/25 08:22:11;;;;;;;50.17;30.98;;;5.00;96.00;;;;;;5062607;28;20024;-59
2022/01/25 08:24:36;;;;;;;52.72;31.90;;;5.00;95.90;;;;;;5056303;28;20021;-58
2022/01/25 08:27:02;;;;;;;52.58;31.33;;;5.00;95.90;;;;;;5070838;28;20421;-59
2022/01/25 08:29:28;;;;;;;53.10;31.50;;;5.00;95.90;;;;;;5064834;28;20484;-58
2022/01/25 08:31:53;;;;;;;56.63;32.20;;;5.00;95.80;;;;;;5065781;28;20476;-58
2022/01/25 08:34:19;;;;;;;51.30;30.70;;;5.00;95.80;;;;;;5074215;28;20035;-58
2022/01/25 08:36:50;;;;;;;57.75;33.67;;;5.00;95.80;;;;;;5074006;28;20023;-58
2022/01/25 08:39:15;;;;;;;57.80;34.78;;;4.90;95.70;;;;;;5056409;28;20433;-59
2022/01/25 08:41:41;;;;;;;59.13;36.10;;;5.00;95.80;;;;;;5074474;28;20059;-59
2022/01/25 08:44:06;;;;;;;51.85;31.98;;;5.00;95.70;;;;;;5056108;28;20094;-59
2022/01/25 08:46:33;;;;;;;68.18;42.72;;;5.00;95.60;;;;;;5070613;28;20031;-58
2022/01/25 08:48:59;;;;;;;70.15;42.28;;;5.00;95.10;;;;;;5049464;28;20025;-59
2022/01/25 08:51:25;;;;;;;69.53;41.05;;;4.90;94.80;;;;;;5054067;28;20024;-59
2022/01/25 08:53:50;;;;;;;57.00;35.33;;;4.80;94.90;;;;;;5051648;28;20028;-59
2022/01/25 08:56:16;;;;;;;57.40;34.10;;;4.80;95.00;;;;;;5055317;28;20452;-59
2022/01/25 08:58:42;;;;;;;52.38;31.63;;;4.90;95.10;;;;;;5056102;28;20021;-59
2022/01/25 09:01:07;;;;;;;50.85;31.65;;;4.90;95.10;;;;;;5073600;28;20077;-59
2022/01/25 09:03:33;;;;;;;48.53;29.35;;;4.90;95.20;;;;;;5073535;28;20513;-59
2022/01/25 09:06:16;;;;;;;48.58;29.45;;;5.00;95.20;;;;;;5073507;28;20020;-58
2022/01/25 09:08:41;;;;;;;53.05;32.17;;;5.00;95.20;;;;;;5073476;28;20012;-59
2022/01/25 09:11:07;;;;;;;48.67;29.60;;;5.00;95.20;;;;;;5073545;28;20024;-59
2022/01/25 09:13:34;;;;;;;54.42;31.85;;;5.00;95.20;;;;;;5073578;28;20035;-59
2022/01/25 09:16:00;;;;;;;47.67;28.98;;;5.00;95.20;;;;;;5067882;28;20070;-59
2022/01/25 09:18:26;;;;;;;49.10;28.48;;;5.00;95.20;;;;;;5060731;28;20357;-59
2022/01/25 09:20:52;;;;;;;51.90;30.40;;;5.10;95.20;;;;;;5072445;28;20032;-59
2022/01/25 09:23:31;;;;;;;49.80;31.30;;;5.10;95.10;;;;;;5055350;28;20024;-59
2022/01/25 09:25:57;;;;;;;49.67;29.13;;;5.10;95.10;;;;;;5054538;28;20059;-59
2022/01/25 09:28:22;;;;;;;58.88;34.95;;;5.10;95.20;;;;;;5055567;28;20484;-59
2022/01/25 09:30:48;;;;;;;57.67;33.25;;;5.10;95.00;;;;;;5055542;28;20542;-59
2022/01/25 09:36:37;;;;;;;52.55;29.25;;;5.20;95.10;;;;;;5065033;28;20040;-59
2022/01/25 09:39:03;;;;;;;79.10;40.28;;;5.20;95.00;;;;;;5055571;28;20037;-59
2022/01/25 09:41:29;;;;;;;63.85;36.00;;;5.10;94.80;;;;;;5073192;28;20035;-59
2022/01/25 09:43:57;;;;;;;58.50;34.63;;;5.10;94.80;;;;;;5072995;28;20024;-59
2022/01/25 09:46:23;;;;;;;51.95;30.77;;;5.20;94.90;;;;;;5073182;28;20111;-59
2022/01/25 09:48:48;;;;;;;48.53;29.15;;;5.20;94.90;;;;;;5072859;28;20060;-59
2022/01/25 09:51:18;;;;;;;55.85;31.52;;;5.20;94.90;;;;;;5072883;28;20476;-59
2022/01/25 09:53:44;;;;;;;56.05;32.28;;;5.30;94.90;;;;;;5072544;28;20038;-59
2022/01/25 09:56:09;;;;;;;56.10;33.28;;;5.30;94.90;;;;;;5054825;28;20041;-58
2022/01/25 09:58:36;;;;;;;59.60;33.03;;;5.30;94.90;;;;;;5072212;28;20116;-59
2022/01/25 10:01:03;;;;;;;55.80;32.30;;;5.30;94.90;;;;;;5072810;28;20039;-59
2022/01/25 10:03:38;;;;;;;60.03;34.70;;;5.30;94.80;;;;;;5054434;28;20107;-59
2022/01/25 10:06:12;;;;;;;73.15;39.95;;;5.30;94.80;;;;;;5054876;28;20451;-58
2022/01/25 10:08:38;;;;;;;70.65;39.15;;;5.30;94.80;;;;;;5072932;28;20016;-58
2022/01/25 10:11:12;;;;;;;69.82;38.20;;;5.30;94.90;;;;;;5072704;28;20483;-58
2022/01/25 10:13:55;;;;;;;64.82;35.35;;;5.40;94.90;;;;;;5072662;28;20025;-59
2022/01/25 10:16:32;;;;;;;70.57;38.63;;;5.40;94.90;;;;;;5072715;28;20020;-59
2022/01/25 10:19:56;;;;;;;;;;;;;;;;;;;;;
2022/01/25 10:26:04;;;;;;;65.53;35.95;;;5.30;94.80;;;;;;5039682;28;20130;-58
2022/01/25 10:28:30;;;;;;;;;;;5.30;94.90;;;;;;5054293;28;20027;-58
2022/01/25 10:31:06;;;;;;;68.80;36.65;;;5.20;94.90;;;;;;5071892;28;19943;-59
2022/01/25 10:33:40;;;;;;;61.08;33.92;;;5.20;95.00;;;;;;5054072;28;20488;-59
2022/01/25 10:36:19;;;;;;;59.83;33.50;;;5.30;94.90;;;;;;5072517;28;20107;-58
2022/01/25 10:38:47;;;;;;;63.43;34.90;;;5.40;94.90;;;;;;5054497;28;20392;-59
2022/01/25 10:41:46;;;;;;;64.70;35.40;;;5.40;94.90;;;;;;5054477;28;20506;-59
2022/01/25 10:44:12;;;;;;;66.80;35.27;;;5.40;94.80;;;;;;5054169;28;20036;-58
2022/01/25 10:46:38;;;;;;;67.05;37.28;;;5.40;94.90;;;;;;5054492;28;20016;-58
2022/01/25 10:49:11;;;;;;;64.38;34.38;;;5.50;94.90;;;;;;5054259;28;20027;-59
2022/01/25 10:51:38;;;;;;;62.42;33.38;;;5.50;94.80;;;;;;5068698;28;20024;-59
2022/01/25 10:54:08;;;;;;;58.63;32.38;;;5.50;94.80;;;;;;5072261;28;20029;-59
2022/01/25 10:56:38;;;;;;;;;;;5.50;94.80;;;;;;5072644;28;20099;-59
2022/01/25 10:59:15;;;;;;;65.07;36.17;;;5.50;94.80;;;;;;5054369;28;20438;-59
2022/01/25 11:01:53;;;;;;;65.38;36.22;;;5.50;94.80;;;;;;5072483;28;20035;-59
2022/01/25 11:04:23;;;;;;;72.97;38.30;;;5.50;94.80;;;;;;5054020;28;20021;-58
2022/01/25 11:06:56;;;;;;;;;;;5.50;94.70;;;;;;5072865;28;20027;-58
2022/01/25 11:09:24;;;;;;;62.35;33.47;;;5.40;94.70;;;;;;5069508;28;20405;-59
2022/01/25 11:11:55;;;;;;;61.60;33.17;;;5.40;94.90;;;;;;5076027;28;20024;-59
2022/01/25 11:17:16;;;;;;;60.60;34.28;;;5.50;94.60;;;;;;5076105;28;20031;-59
2022/01/25 11:21:17;;;;;;;;;;;;;;;;;;;;;
2022/01/25 11:23:13;;;;;;;62.88;34.90;;;5.60;94.60;;;;;;4978318;28;20054;-59
2022/01/25 11:26:35;;;;;;;66.50;35.88;;;5.50;94.60;;;;;;5053328;28;20059;-59
2022/01/25 11:29:02;;;;;;;70.85;37.38;;;5.60;94.60;;;;;;5046063;28;20124;-58
2022/01/25 11:31:28;;;;;;;71.10;37.47;;;5.50;94.60;;;;;;5067299;28;20028;-59
2022/01/25 11:33:55;;;;;;;70.75;37.22;;;5.60;94.60;;;;;;5062541;28;20032;-59
2022/01/25 11:36:22;;;;;;;71.68;39.17;;;5.60;94.50;;;;;;5062806;28;20033;-59
2022/01/25 11:38:51;;;;;;;61.15;33.63;;;5.60;94.50;;;;;;5051955;28;20039;-59
2022/01/25 11:41:19;;;;;;;58.15;33.38;;;5.60;94.60;;;;;;5071684;28;20023;-59
2022/01/25 11:44:17;;;;;;;58.42;31.15;;;5.70;94.50;;;;;;5068835;28;20058;-59
2022/01/25 11:46:47;;;;;;;57.08;31.92;;;5.70;94.40;;;;;;5065243;28;20024;-59
2022/01/25 11:49:19;;;;;;;56.50;31.08;;;5.70;94.40;;;;;;5056400;28;20476;-59
2022/01/25 11:52:24;;;;;;;55.55;30.65;;;5.80;94.40;;;;;;5068884;28;20020;-59
2022/01/25 11:55:14;;;;;;;61.80;32.17;;;5.80;94.30;;;;;;4971617;28;20031;-59
2022/01/25 11:57:56;;;;;;;;;;;5.70;94.40;;;;;;4951327;28;20030;-59
2022/01/25 12:00:45;;;;;;;61.33;32.70;;;5.70;94.40;;;;;;5067507;28;19916;-59
2022/01/25 12:03:35;;;;;;;73.22;39.53;;;5.70;94.30;;;;;;5047732;28;20103;-59
2022/01/25 12:06:44;;;;;;;;;;;;;;;;;;;;;
2022/01/25 12:09:43;;;;;;;60.80;34.28;;;5.70;94.20;;;;;;5064374;28;20028;-59
2022/01/25 12:12:10;;;;;;;69.60;37.75;;;5.80;94.20;;;;;;5032661;28;20048;-58
2022/01/25 12:14:52;;;;;;;67.85;37.47;;;5.70;94.10;;;;;;5062680;28;20027;-59
2022/01/25 12:17:23;;;;;;;63.25;34.55;;;5.80;94.10;;;;;;5049288;28;20029;-58
2022/01/25 12:20:25;;;;;;;60.25;33.47;;;5.80;94.20;;;;;;5046890;28;20049;-59
2022/01/25 12:23:18;;;;;;;58.28;33.92;;;5.80;94.20;;;;;;5053661;28;20032;-58
2022/01/25 12:25:56;;;;;;;64.82;35.08;;;5.80;94.10;;;;;;5036581;28;20021;-58
2022/01/25 12:28:26;;;;;;;66.72;36.20;;;5.80;94.20;;;;;;5054699;28;20023;-58
2022/01/25 12:30:52;;;;;;;55.20;31.92;;;5.80;94.10;;;;;;5054462;28;20052;-59
2022/01/25 12:33:26;;;;;;;55.05;31.08;;;5.90;94.10;;;;;;5036588;28;20397;-59
2022/01/25 12:36:00;;;;;;;59.83;33.08;;;5.90;94.00;;;;;;5068197;28;20024;-59
2022/01/25 12:38:46;;;;;;;60.40;34.45;;;5.90;94.00;;;;;;5067461;28;20021;-58
2022/01/25 12:41:12;;;;;;;58.70;33.45;;;5.90;93.90;;;;;;5073681;28;20033;-58
2022/01/25 12:43:58;;;;;;;55.63;31.00;;;5.80;94.00;;;;;;5054382;28;20123;-58
2022/01/25 12:46:30;;;;;;;54.53;31.27;;;5.90;93.90;;;;;;5069402;28;20017;-58
2022/01/25 12:49:03;;;;;;;54.88;31.23;;;5.90;94.00;;;;;;5064085;28;20096;-59
2022/01/25 12:51:35;;;;;;;65.47;36.92;;;5.90;93.90;;;;;;5061041;28;20031;-59
2022/01/25 12:54:05;;;;;;;65.68;36.40;;;5.90;93.90;;;;;;5066642;28;20016;-59
2022/01/25 12:56:35;;;;;;;62.28;35.53;;;5.90;93.90;;;;;;5046635;28;20035;-59
2022/01/25 12:59:06;;;;;;;60.30;35.13;;;5.90;93.90;;;;;;5069890;28;20036;-59
2022/01/25 13:01:32;;;;;;;57.42;33.42;;;5.90;93.90;;;;;;5063535;28;20073;-59
2022/01/25 13:04:07;;;;;;;58.53;33.83;;;5.90;94.00;;;;;;5064530;28;20473;-59
2022/01/25 13:06:35;;;;;;;65.80;37.30;;;5.80;93.90;;;;;;5045073;28;20085;-59
2022/01/25 13:09:24;;;;;;;63.25;34.05;;;5.90;93.90;;;;;;5066393;28;20484;-59
2022/01/25 13:17:29;;;;;;;57.92;31.48;;;5.90;93.80;;;;;;5070022;28;20036;-58
2022/01/25 13:20:02;;;;;;;52.70;29.10;;;5.90;93.80;;;;;;5068002;28;20055;-58
2022/01/25 13:22:36;;;;;;;61.10;33.70;;;5.90;93.80;;;;;;5055471;28;20035;-59
2022/01/25 13:25:31;;;;;;;59.95;33.85;;;5.90;93.70;;;;;;5073336;28;20024;-59
2022/01/25 13:31:47;;;;;;;63.70;35.47;;;5.80;93.70;;;;;;5009854;28;20100;-59
2022/01/25 13:34:37;;;;;;;;;;;;;;;;;;;;;
2022/01/25 13:37:03;;;;;;;73.82;41.85;;;5.80;93.60;;;;;;5053084;28;20033;-58
2022/01/25 13:39:30;;;;;;;70.50;39.53;;;5.80;93.60;;;;;;5052014;28;20131;-59
2022/01/25 13:42:32;;;;;;;;;;;;;;;;;;;;;
2022/01/25 13:46:04;;;;;;;59.80;33.47;;;5.80;93.60;;;;;;5048139;28;20036;-59
2022/01/25 13:48:30;;;;;;;55.72;30.35;;;5.90;93.60;;;;;;5014029;28;20485;-59
2022/01/25 13:50:59;;;;;;;55.22;30.63;;;5.80;93.70;;;;;;5052908;28;20102;-59
2022/01/25 13:53:27;;;;;;;51.60;29.00;;;5.90;93.70;;;;;;5051688;28;20477;-59
2022/01/25 13:55:55;;;;;;;53.50;29.63;;;5.90;93.60;;;;;;5052900;28;20061;-59
2022/01/25 13:58:45;;;;;;;56.45;30.52;;;5.90;93.60;;;;;;5051584;28;20025;-59
2022/01/25 14:01:18;;;;;;;;;;;5.90;93.60;;;;;;5053198;28;20108;-59
2022/01/25 14:03:51;;;;;;;64.13;33.90;;;5.90;93.60;;;;;;5052588;28;20356;-59
2022/01/25 14:06:22;;;;;;;55.67;32.25;;;5.80;93.70;;;;;;5035048;28;20029;-59
2022/01/25 14:09:27;;;;;;;57.95;32.03;;;5.90;93.60;;;;;;5052585;28;20496;-59
2022/01/25 14:21:39;;;;;;;56.35;30.90;;;5.90;93.60;;;;;;5031752;28;20511;-59
2022/01/25 14:23:45;;;;;;;55.38;30.20;;;5.90;93.60;;;;;;5032435;28;20516;-59
2022/01/25 14:26:11;;;;;;;54.72;31.25;;;5.90;93.60;;;;;;5025635;28;20030;-59
2022/01/25 14:31:43;;;;;;;55.00;30.08;;;5.90;93.60;;;;;;5052502;28;20049;-59
2022/01/25 14:34:11;;;;;;;50.47;27.70;;;5.90;93.60;;;;;;5051064;28;20035;-59
2022/01/25 14:36:39;;;;;;;51.20;28.42;;;5.90;93.60;;;;;;5052371;28;20469;-58
2022/01/25 14:39:05;;;;;;;49.95;27.48;;;5.90;93.60;;;;;;5052287;28;20053;-59
2022/01/25 14:41:34;;;;;;;51.47;28.88;;;5.90;93.50;;;;;;5052498;28;20071;-59
2022/01/25 14:44:12;;;;;;;53.45;30.25;;;6.00;93.50;;;;;;5034251;28;20025;-59
2022/01/25 14:47:11;;;;;;;51.42;28.30;;;6.00;93.40;;;;;;5056312;28;20036;-59
2022/01/25 14:49:44;;;;;;;50.83;27.77;;;6.00;93.40;;;;;;5025825;28;20127;-59
2022/01/25 14:52:10;;;;;;;51.38;28.50;;;5.90;93.50;;;;;;5056497;28;20029;-59
2022/01/25 14:54:38;;;;;;;49.97;27.80;;;6.00;93.50;;;;;;5055754;28;20025;-59
2022/01/25 14:57:09;;;;;;;51.92;28.15;;;6.00;93.50;;;;;;5073712;28;20029;-58
2022/01/25 14:59:46;;;;;;;51.50;28.38;;;6.00;93.50;;;;;;5076417;28;20040;-58
2022/01/25 15:02:17;;;;;;;48.05;27.63;;;6.00;93.50;;;;;;5058090;28;20443;-58
2022/01/25 15:04:58;;;;;;;49.88;27.85;;;6.00;93.50;;;;;;5058157;28;20361;-59
2022/01/25 15:07:27;;;;;;;47.78;27.38;;;6.00;93.40;;;;;;5058142;28;20538;-59
2022/01/25 15:12:28;;;;;;;51.85;28.85;;;6.00;93.40;;;;;;5072532;28;20021;-59
2022/01/25 15:17:52;;;;;;;51.40;27.75;;;6.00;93.40;;;;;;5071497;28;20032;-59
2022/01/25 15:20:18;;;;;;;52.17;28.98;;;6.00;93.40;;;;;;5056788;28;20024;-59
2022/01/25 15:22:45;;;;;;;50.45;27.15;;;6.00;93.50;;;;;;5065212;28;20021;-59
2022/01/25 15:25:14;;;;;;;48.67;27.73;;;6.00;93.50;;;;;;5073918;28;20021;-59
2022/01/25 15:27:39;;;;;;;53.10;28.95;;;6.00;93.50;;;;;;5073032;28;20039;-59
2022/01/25 15:30:08;;;;;;;55.05;29.35;;;5.90;93.50;;;;;;5069968;28;20492;-58
2022/01/25 15:32:34;;;;;;;53.60;30.10;;;6.00;93.50;;;;;;5069195;28;20030;-59
2022/01/25 15:35:00;;;;;;;54.45;30.60;;;5.90;93.40;;;;;;5066489;28;20029;-58
2022/01/25 15:37:33;;;;;;;50.45;28.30;;;5.90;93.40;;;;;;5051042;28;20126;-59
2022/01/25 15:39:58;;;;;;;52.70;28.73;;;5.90;93.40;;;;;;5052358;28;20029;-59
2022/01/25 15:42:27;;;;;;;53.13;29.60;;;5.90;93.50;;;;;;5071641;28;20012;-59
2022/01/25 15:44:55;;;;;;;54.47;29.98;;;5.90;93.50;;;;;;5060900;28;20111;-58